Time;durP1;ratioP1;P1;durP2;ratioP2;P2;SDS_P1;SDS_P2;PMS_P1;PMS_P2;Temp;Humidity;BMP_temperature;BMP_pressure;BME280_temperature;BME280_humidity;BME280_pressure;Samples;Min_cycle;Max_cycle;Signal;HPM_P1;HPM_P2
2024/03/08 00:00:38;;;;;;;0.20;0.20;;;;;;;;;;5061409;28;20566;-75
2024/03/08 00:03:04;;;;;;;0.20;0.20;;;;;;;;;;5092271;28;20192;-75
2024/03/08 00:05:31;;;;;;;0.30;0.30;;;;;;;;;;5061715;28;20244;-75
2024/03/08 00:07:57;;;;;;;0.50;0.50;;;;;;;;;;5092185;28;20224;-75
2024/03/08 00:10:28;;;;;;;0.20;0.20;;;;;;;;;;5059365;28;20292;-76
2024/03/08 00:12:55;;;;;;;0.20;0.20;;;;;;;;;;5093473;28;20239;-75
2024/03/08 00:15:22;;;;;;;0.20;0.20;;;;;;;;;;5058752;28;20402;-75
2024/03/08 00:17:49;;;;;;;0.20;0.20;;;;;;;;;;5094421;28;20235;-76
2024/03/08 00:20:17;;;;;;;0.20;0.20;;;;;;;;;;5056945;28;20261;-76
2024/03/08 00:22:44;;;;;;;0.20;0.20;;;;;;;;;;5095676;28;20499;-75
2024/03/08 00:25:11;;;;;;;0.20;0.20;;;;;;;;;;5055761;28;20263;-76
2024/03/08 00:27:39;;;;;;;0.20;0.20;;;;;;;;;;5097179;28;20200;-75
2024/03/08 00:30:06;;;;;;;0.20;0.20;;;;;;;;;;5065620;28;20394;-75
2024/03/08 00:32:33;;;;;;;0.50;0.50;;;;;;;;;;5087768;28;20307;-76
2024/03/08 00:34:59;;;;;;;0.20;0.20;;;;;;;;;;5065297;28;20196;-76
2024/03/08 00:37:26;;;;;;;0.20;0.20;;;;;;;;;;5087766;28;20280;-75
2024/03/08 00:39:53;;;;;;;1.80;1.70;;;;;;;;;;5065048;28;20231;-76
2024/03/08 00:42:20;;;;;;;0.20;0.20;;;;;;;;;;5087513;28;20302;-75
2024/03/08 00:44:51;;;;;;;0.20;0.20;;;;;;;;;;5065234;28;20208;-75
2024/03/08 00:47:17;;;;;;;0.20;0.20;;;;;;;;;;5087575;28;20301;-75
2024/03/08 00:49:43;;;;;;;0.20;0.20;;;;;;;;;;5064983;28;20234;-75
2024/03/08 00:52:10;;;;;;;0.20;0.20;;;;;;;;;;5087543;28;20428;-76
2024/03/08 00:54:36;;;;;;;0.20;0.20;;;;;;;;;;5064899;28;20207;-76
2024/03/08 00:57:03;;;;;;;0.27;0.27;;;;;;;;;;5085260;28;20262;-76
2024/03/08 00:59:31;;;;;;;0.20;0.20;;;;;;;;;;5066492;28;20251;-76
2024/03/08 01:02:00;;;;;;;0.20;0.20;;;;;;;;;;5083678;28;20238;-75
2024/03/08 01:04:28;;;;;;;0.20;0.20;;;;;;;;;;5067474;28;20210;-75
2024/03/08 01:06:56;;;;;;;0.20;0.20;;;;;;;;;;5083226;28;20496;-76
2024/03/08 01:09:22;;;;;;;0.20;0.20;;;;;;;;;;5067947;28;20298;-75
2024/03/08 01:11:49;;;;;;;0.20;0.20;;;;;;;;;;5081358;28;20252;-75
2024/03/08 01:14:15;;;;;;;0.20;0.20;;;;;;;;;;5070098;28;20391;-75
2024/03/08 01:16:42;;;;;;;0.20;0.20;;;;;;;;;;5079412;28;20254;-75
2024/03/08 01:19:10;;;;;;;0.20;0.20;;;;;;;;;;5071510;28;20277;-74
2024/03/08 01:21:36;;;;;;;0.20;0.20;;;;;;;;;;5077655;28;20241;-75
2024/03/08 01:24:02;;;;;;;0.20;0.20;;;;;;;;;;5073303;28;20214;-75
2024/03/08 01:26:29;;;;;;;0.20;0.20;;;;;;;;;;5075725;28;20249;-74
2024/03/08 01:28:55;;;;;;;0.20;0.20;;;;;;;;;;5074877;28;20257;-75
2024/03/08 01:31:22;;;;;;;0.20;0.20;;;;;;;;;;5073532;28;20284;-76
2024/03/08 01:33:49;;;;;;;0.20;0.20;;;;;;;;;;5076923;28;20207;-76
2024/03/08 01:36:19;;;;;;;0.20;0.20;;;;;;;;;;5072153;28;20506;-76
2024/03/08 01:38:45;;;;;;;0.20;0.20;;;;;;;;;;5077499;28;20207;-76
2024/03/08 01:41:13;;;;;;;0.20;0.20;;;;;;;;;;5070926;28;20481;-76
2024/03/08 01:43:39;;;;;;;0.20;0.20;;;;;;;;;;5079061;28;20227;-75
2024/03/08 01:46:06;;;;;;;0.50;0.50;;;;;;;;;;5069045;28;20242;-76
2024/03/08 01:48:33;;;;;;;0.20;0.20;;;;;;;;;;5080850;28;20232;-76
2024/03/08 01:51:00;;;;;;;0.47;0.47;;;;;;;;;;5067627;28;20583;-76
2024/03/08 01:53:28;;;;;;;0.20;0.20;;;;;;;;;;5082208;28;20195;-76
2024/03/08 01:55:56;;;;;;;0.20;0.20;;;;;;;;;;5065941;28;20264;-76
2024/03/08 01:58:23;;;;;;;0.20;0.20;;;;;;;;;;5083047;28;20213;-75
2024/03/08 02:00:50;;;;;;;0.20;0.20;;;;;;;;;;5064164;28;20272;-76
2024/03/08 02:03:16;;;;;;;0.87;0.87;;;;;;;;;;5085027;28;20207;-76
2024/03/08 02:05:43;;;;;;;0.20;0.20;;;;;;;;;;5062470;28;20250;-75
2024/03/08 02:08:12;;;;;;;0.20;0.20;;;;;;;;;;5086260;28;20223;-76
2024/03/08 02:13:20;;;;;;;0.20;0.20;;;;;;;;;;5082163;28;20226;-76
2024/03/08 02:15:53;;;;;;;0.20;0.20;;;;;;;;;;5063571;28;20241;-76
2024/03/08 02:18:19;;;;;;;0.20;0.20;;;;;;;;;;5083848;28;20262;-75
2024/03/08 02:20:48;;;;;;;0.23;0.23;;;;;;;;;;5063275;28;20238;-76
2024/03/08 02:23:14;;;;;;;0.20;0.20;;;;;;;;;;5085450;28;20265;-76
2024/03/08 02:25:41;;;;;;;0.20;0.20;;;;;;;;;;5061752;28;20275;-77
2024/03/08 02:28:08;;;;;;;0.20;0.20;;;;;;;;;;5087170;28;20193;-76
2024/03/08 02:30:35;;;;;;;0.20;0.20;;;;;;;;;;5059881;28;20240;-76
2024/03/08 02:33:02;;;;;;;0.20;0.20;;;;;;;;;;5088339;28;20282;-76
2024/03/08 02:35:28;;;;;;;0.20;0.20;;;;;;;;;;5058397;28;20246;-76
2024/03/08 02:37:56;;;;;;;0.20;0.20;;;;;;;;;;5090143;28;20204;-76
2024/03/08 02:40:23;;;;;;;0.20;0.20;;;;;;;;;;5056554;28;20224;-75
2024/03/08 02:42:49;;;;;;;0.20;0.20;;;;;;;;;;5091806;28;20200;-76
2024/03/08 02:45:16;;;;;;;0.20;0.20;;;;;;;;;;5055224;28;20454;-76
2024/03/08 02:47:42;;;;;;;0.20;0.20;;;;;;;;;;5093535;28;20399;-76
2024/03/08 02:50:09;;;;;;;0.20;0.20;;;;;;;;;;5057112;28;20256;-76
2024/03/08 02:52:36;;;;;;;0.20;0.20;;;;;;;;;;5094957;28;20219;-75
2024/03/08 02:55:06;;;;;;;0.20;0.20;;;;;;;;;;5063161;28;20203;-75
2024/03/08 02:57:32;;;;;;;0.20;0.20;;;;;;;;;;5085722;28;20246;-75
2024/03/08 02:59:59;;;;;;;0.20;0.20;;;;;;;;;;5062938;28;20253;-75
2024/03/08 03:02:26;;;;;;;0.20;0.20;;;;;;;;;;5085419;28;20440;-75
2024/03/08 03:04:53;;;;;;;0.27;0.27;;;;;;;;;;5062980;28;20257;-76
2024/03/08 03:07:20;;;;;;;0.20;0.20;;;;;;;;;;5085391;28;20557;-76
2024/03/08 03:09:46;;;;;;;0.20;0.20;;;;;;;;;;5062647;28;20298;-76
2024/03/08 03:12:14;;;;;;;0.20;0.20;;;;;;;;;;5085321;28;20239;-75
2024/03/08 03:14:40;;;;;;;0.30;0.30;;;;;;;;;;5063247;28;20236;-76
2024/03/08 03:17:06;;;;;;;0.97;0.97;;;;;;;;;;5084806;28;20594;-76
2024/03/08 03:19:32;;;;;;;0.20;0.20;;;;;;;;;;5063340;28;20227;-75
2024/03/08 03:21:59;;;;;;;0.20;0.20;;;;;;;;;;5086462;28;20238;-75
2024/03/08 03:24:29;;;;;;;0.30;0.30;;;;;;;;;;5069145;28;20204;-76
2024/03/08 03:26:55;;;;;;;0.20;0.20;;;;;;;;;;5085047;28;20240;-76
2024/03/08 03:29:23;;;;;;;0.20;0.20;;;;;;;;;;5070609;28;20207;-76
2024/03/08 03:31:50;;;;;;;0.20;0.20;;;;;;;;;;5083349;28;20251;-76
2024/03/08 03:34:16;;;;;;;0.20;0.20;;;;;;;;;;5071753;28;20231;-76
2024/03/08 03:36:45;;;;;;;2.87;2.67;;;;;;;;;;5081585;28;20491;-76
2024/03/08 03:39:15;;;;;;;0.20;0.20;;;;;;;;;;5072813;28;20526;-76
2024/03/08 03:41:44;;;;;;;0.30;0.30;;;;;;;;;;5080775;28;20334;-76
2024/03/08 03:44:10;;;;;;;0.80;0.80;;;;;;;;;;5073280;28;20214;-76
2024/03/08 03:46:38;;;;;;;0.20;0.20;;;;;;;;;;5079673;28;20253;-75
2024/03/08 03:49:05;;;;;;;0.20;0.20;;;;;;;;;;5074626;28;20214;-76
2024/03/08 03:51:31;;;;;;;0.50;0.50;;;;;;;;;;5077963;28;20448;-76
2024/03/08 03:53:58;;;;;;;0.20;0.20;;;;;;;;;;5076436;28;20214;-74
2024/03/08 03:56:26;;;;;;;0.20;0.20;;;;;;;;;;5076356;28;20241;-76
2024/03/08 03:58:52;;;;;;;0.20;0.20;;;;;;;;;;5077560;28;20275;-76
2024/03/08 04:01:19;;;;;;;0.20;0.20;;;;;;;;;;5074498;28;20488;-76
2024/03/08 04:03:47;;;;;;;0.20;0.20;;;;;;;;;;5079561;28;20207;-76
2024/03/08 04:06:14;;;;;;;0.20;0.20;;;;;;;;;;5073143;28;20264;-76
2024/03/08 04:08:40;;;;;;;0.20;0.20;;;;;;;;;;5080481;28;20216;-76
2024/03/08 04:11:08;;;;;;;0.20;0.20;;;;;;;;;;5071215;28;20249;-76
2024/03/08 04:13:35;;;;;;;0.20;0.20;;;;;;;;;;5082053;28;20202;-76
2024/03/08 04:16:02;;;;;;;0.20;0.20;;;;;;;;;;5069828;28;20248;-77
2024/03/08 04:18:28;;;;;;;0.20;0.20;;;;;;;;;;5084028;28;20437;-76
2024/03/08 04:20:56;;;;;;;0.20;0.20;;;;;;;;;;5067684;28;20278;-76
2024/03/08 04:23:23;;;;;;;0.20;0.20;;;;;;;;;;5085227;28;20203;-76
2024/03/08 04:25:49;;;;;;;0.20;0.20;;;;;;;;;;5066169;28;20449;-76
2024/03/08 04:28:17;;;;;;;0.20;0.20;;;;;;;;;;5086947;28;20238;-76
2024/03/08 04:30:43;;;;;;;0.20;0.20;;;;;;;;;;5064573;28;20491;-75
2024/03/08 04:33:10;;;;;;;0.23;0.23;;;;;;;;;;5087461;28;20207;-76
2024/03/08 04:35:36;;;;;;;0.20;0.20;;;;;;;;;;5062607;28;20331;-76
2024/03/08 04:38:05;;;;;;;0.20;0.20;;;;;;;;;;5090257;28;20192;-76
2024/03/08 04:40:32;;;;;;;0.20;0.20;;;;;;;;;;5061057;28;20238;-76
2024/03/08 04:42:59;;;;;;;0.20;0.20;;;;;;;;;;5091332;28;20207;-76
2024/03/08 04:45:26;;;;;;;0.23;0.23;;;;;;;;;;5059276;28;20279;-76
2024/03/08 04:47:53;;;;;;;0.27;0.27;;;;;;;;;;5092790;28;20207;-76
2024/03/08 04:50:19;;;;;;;0.20;0.20;;;;;;;;;;5057740;28;20228;-76
2024/03/08 04:52:46;;;;;;;0.20;0.20;;;;;;;;;;5094471;28;20275;-76
2024/03/08 04:55:13;;;;;;;0.20;0.20;;;;;;;;;;5057231;28;20519;-77
2024/03/08 04:57:41;;;;;;;0.20;0.20;;;;;;;;;;5096733;28;20291;-76
2024/03/08 05:00:11;;;;;;;0.40;0.40;;;;;;;;;;5064729;28;20231;-75
2024/03/08 05:02:38;;;;;;;0.20;0.20;;;;;;;;;;5053832;28;20216;-76
2024/03/08 05:05:06;;;;;;;2.27;2.13;;;;;;;;;;5065046;28;20215;-76
2024/03/08 05:07:32;;;;;;;0.20;0.20;;;;;;;;;;5086849;28;20478;-76
2024/03/08 05:09:59;;;;;;;0.20;0.20;;;;;;;;;;5064692;28;20239;-76
2024/03/08 05:12:27;;;;;;;0.20;0.20;;;;;;;;;;5087040;28;20258;-76
2024/03/08 05:14:53;;;;;;;0.20;0.20;;;;;;;;;;5065024;28;20274;-75
2024/03/08 05:17:20;;;;;;;0.20;0.20;;;;;;;;;;5086595;28;20245;-75
2024/03/08 05:19:46;;;;;;;1.63;1.63;;;;;;;;;;5064699;28;20248;-76
2024/03/08 05:22:13;;;;;;;0.20;0.20;;;;;;;;;;5086625;28;20316;-76
2024/03/08 05:24:42;;;;;;;0.20;0.20;;;;;;;;;;5064442;28;20410;-76
2024/03/08 05:27:09;;;;;;;0.20;0.20;;;;;;;;;;5086479;28;20569;-76
2024/03/08 05:29:37;;;;;;;0.23;0.23;;;;;;;;;;5064686;28;20230;-78
2024/03/08 05:32:04;;;;;;;0.20;0.20;;;;;;;;;;5084898;28;20242;-78
2024/03/08 05:34:30;;;;;;;0.20;0.20;;;;;;;;;;5066022;28;20401;-78
2024/03/08 05:36:58;;;;;;;0.30;0.30;;;;;;;;;;5083137;28;20268;-78
2024/03/08 05:39:25;;;;;;;0.23;0.23;;;;;;;;;;5066834;28;20211;-78
2024/03/08 05:41:51;;;;;;;0.20;0.20;;;;;;;;;;5081453;28;20279;-77
2024/03/08 05:44:18;;;;;;;0.20;0.20;;;;;;;;;;5068654;28;20226;-78
2024/03/08 05:46:46;;;;;;;0.23;0.23;;;;;;;;;;5079873;28;20242;-77
2024/03/08 05:49:13;;;;;;;0.20;0.20;;;;;;;;;;5071200;28;20565;-77
2024/03/08 05:51:40;;;;;;;1.07;1.07;;;;;;;;;;5079343;28;20249;-77
2024/03/08 05:54:09;;;;;;;0.20;0.20;;;;;;;;;;5072872;28;20213;-78
2024/03/08 05:56:36;;;;;;;0.83;0.83;;;;;;;;;;5078655;28;20241;-77
2024/03/08 05:59:03;;;;;;;0.43;0.43;;;;;;;;;;5068585;28;20241;-77
2024/03/08 06:01:30;;;;;;;2.30;2.20;;;;;;;;;;5075775;28;20260;-77
2024/03/08 06:03:58;;;;;;;0.20;0.20;;;;;;;;;;5076238;28;20204;-79
2024/03/08 06:06:25;;;;;;;0.83;0.83;;;;;;;;;;5074702;28;20421;-78
2024/03/08 06:08:56;;;;;;;0.20;0.20;;;;;;;;;;5076035;28;20237;-76
2024/03/08 06:11:26;;;;;;;0.20;0.20;;;;;;;;;;5074438;28;20315;-78
2024/03/08 06:13:59;;;;;;;0.20;0.20;;;;;;;;;;5075606;28;20209;-77
2024/03/08 06:16:29;;;;;;;0.20;0.20;;;;;;;;;;5074809;28;20581;-77
2024/03/08 06:18:55;;;;;;;0.40;0.40;;;;;;;;;;5075869;28;20272;-77
2024/03/08 06:21:26;;;;;;;0.20;0.20;;;;;;;;;;5074474;28;20253;-77
2024/03/08 06:23:54;;;;;;;0.20;0.20;;;;;;;;;;5076971;28;20389;-77
2024/03/08 06:26:21;;;;;;;0.20;0.20;;;;;;;;;;5073872;28;20434;-77
2024/03/08 06:28:48;;;;;;;0.40;0.40;;;;;;;;;;5078094;28;20211;-78
2024/03/08 06:31:14;;;;;;;0.20;0.20;;;;;;;;;;5072416;28;20410;-77
2024/03/08 06:33:41;;;;;;;0.20;0.20;;;;;;;;;;5079290;28;20264;-77
2024/03/08 06:36:07;;;;;;;0.30;0.30;;;;;;;;;;5070422;28;20467;-77
2024/03/08 06:38:35;;;;;;;0.20;0.20;;;;;;;;;;5080452;28;20403;-77
2024/03/08 06:41:03;;;;;;;0.20;0.20;;;;;;;;;;5067247;28;20239;-77
2024/03/08 06:43:34;;;;;;;0.20;0.20;;;;;;;;;;5081224;28;20204;-77
2024/03/08 06:46:00;;;;;;;0.20;0.20;;;;;;;;;;5067088;28;20253;-77
2024/03/08 06:48:26;;;;;;;0.20;0.20;;;;;;;;;;5081970;28;20271;-77
2024/03/08 06:50:53;;;;;;;0.20;0.20;;;;;;;;;;5065102;28;20249;-78
2024/03/08 06:53:19;;;;;;;0.20;0.20;;;;;;;;;;5084773;28;20219;-78
2024/03/08 06:55:47;;;;;;;0.30;0.30;;;;;;;;;;5066410;28;20251;-77
2024/03/08 06:58:14;;;;;;;2.87;2.77;;;;;;;;;;5091050;28;20267;-77
2024/03/08 07:00:40;;;;;;;0.30;0.30;;;;;;;;;;5066061;28;20261;-76
2024/03/08 07:03:12;;;;;;;0.83;0.83;;;;;;;;;;5091699;28;20234;-76
2024/03/08 07:05:39;;;;;;;0.20;0.20;;;;;;;;;;5065340;28;20574;-78
2024/03/08 07:08:06;;;;;;;0.20;0.20;;;;;;;;;;5092368;28;20250;-78
2024/03/08 07:10:32;;;;;;;0.20;0.20;;;;;;;;;;5064268;28;20238;-78
2024/03/08 07:13:01;;;;;;;0.20;0.20;;;;;;;;;;5094591;28;20233;-78
2024/03/08 07:15:28;;;;;;;0.20;0.20;;;;;;;;;;5062841;28;20415;-78
2024/03/08 07:17:54;;;;;;;0.20;0.20;;;;;;;;;;5095554;28;20208;-78
2024/03/08 07:20:21;;;;;;;3.10;3.00;;;;;;;;;;5059834;28;20201;-79
2024/03/08 07:22:50;;;;;;;0.20;0.20;;;;;;;;;;5095588;28;20231;-78
2024/03/08 07:25:23;;;;;;;0.10;0.10;;;;;;;;;;5058555;28;20275;-78
2024/03/08 07:27:51;;;;;;;0.20;0.20;;;;;;;;;;5095196;28;20204;-78
2024/03/08 07:32:59;;;;;;;0.20;0.20;;;;;;;;;;5093153;28;20215;-78
2024/03/08 07:35:26;;;;;;;0.20;0.20;;;;;;;;;;5062129;28;20235;-78
2024/03/08 07:37:54;;;;;;;0.20;0.20;;;;;;;;;;5095526;28;20224;-78
2024/03/08 07:40:21;;;;;;;0.10;0.10;;;;;;;;;;5060307;28;20403;-77
2024/03/08 07:42:47;;;;;;;0.10;0.10;;;;;;;;;;5096879;28;20231;-78
2024/03/08 07:45:14;;;;;;;0.20;0.20;;;;;;;;;;5058789;28;20508;-78
2024/03/08 07:47:41;;;;;;;0.10;0.10;;;;;;;;;;5098690;28;20272;-78
2024/03/08 07:50:09;;;;;;;0.10;0.10;;;;;;;;;;5067761;28;20204;-78
2024/03/08 07:52:36;;;;;;;0.20;0.20;;;;;;;;;;5056062;28;20201;-78
2024/03/08 07:55:03;;;;;;;0.20;0.20;;;;;;;;;;5067633;28;20208;-78
2024/03/08 07:57:29;;;;;;;0.20;0.20;;;;;;;;;;5088906;28;20240;-78
2024/03/08 07:59:56;;;;;;;1.50;1.50;;;;;;;;;;5067236;28;20243;-79
2024/03/08 08:02:22;;;;;;;0.20;0.20;;;;;;;;;;5089149;28;20300;-78
2024/03/08 08:04:50;;;;;;;6.27;2.10;;;;;;;;;;5067247;28;20205;-77
2024/03/08 08:07:17;;;;;;;0.20;0.20;;;;;;;;;;5088307;28;20459;-76
2024/03/08 08:09:43;;;;;;;0.17;0.17;;;;;;;;;;5066546;28;20290;-78
2024/03/08 08:12:11;;;;;;;0.10;0.10;;;;;;;;;;5089437;28;20582;-78
2024/03/08 08:14:38;;;;;;;0.10;0.10;;;;;;;;;;5067284;28;20479;-79
2024/03/08 08:17:05;;;;;;;0.10;0.10;;;;;;;;;;5088160;28;20245;-78
2024/03/08 08:19:31;;;;;;;0.20;0.20;;;;;;;;;;5067938;28;20530;-79
2024/03/08 08:21:59;;;;;;;0.10;0.10;;;;;;;;;;5086362;28;20338;-79
2024/03/08 08:24:26;;;;;;;0.20;0.20;;;;;;;;;;5069695;28;20490;-79
2024/03/08 08:26:52;;;;;;;0.10;0.10;;;;;;;;;;5084835;28;20253;-79
2024/03/08 08:29:20;;;;;;;0.17;0.17;;;;;;;;;;5071130;28;20204;-78
2024/03/08 08:31:47;;;;;;;0.10;0.10;;;;;;;;;;5082910;28;20261;-80
2024/03/08 08:34:13;;;;;;;0.10;0.10;;;;;;;;;;5073305;28;20208;-79
2024/03/08 08:36:40;;;;;;;0.10;0.10;;;;;;;;;;5081682;28;20237;-80
2024/03/08 08:39:12;;;;;;;0.10;0.10;;;;;;;;;;5074801;28;20266;-79
2024/03/08 08:41:38;;;;;;;0.10;0.10;;;;;;;;;;5080822;28;20235;-79
2024/03/08 08:44:09;;;;;;;0.10;0.10;;;;;;;;;;5074294;28;20238;-79
2024/03/08 08:46:36;;;;;;;0.10;0.10;;;;;;;;;;5078956;28;20271;-80
2024/03/08 08:49:03;;;;;;;0.10;0.10;;;;;;;;;;5074579;28;20215;-82
2024/03/08 08:51:29;;;;;;;1.13;1.13;;;;;;;;;;5068961;28;20236;-80
2024/03/08 08:53:55;;;;;;;0.00;0.00;;;;;;;;;;5076917;28;20210;-81
2024/03/08 08:56:23;;;;;;;0.10;0.10;;;;;;;;;;5075554;28;20238;-81
2024/03/08 08:58:50;;;;;;;0.00;0.00;;;;;;;;;;5078162;28;20205;-80
2024/03/08 09:01:18;;;;;;;0.00;0.00;;;;;;;;;;5073573;28;20239;-80
2024/03/08 09:03:46;;;;;;;0.10;0.10;;;;;;;;;;5079897;28;20225;-80
2024/03/08 09:06:13;;;;;;;0.00;0.00;;;;;;;;;;5072839;28;20239;-82
2024/03/08 09:08:39;;;;;;;1.55;1.55;;;;;;;;;;5080655;28;20215;-82
2024/03/08 09:11:06;;;;;;;0.00;0.00;;;;;;;;;;5070981;28;20242;-80
2024/03/08 09:13:33;;;;;;;0.00;0.00;;;;;;;;;;5082168;28;20211;-81
2024/03/08 09:16:00;;;;;;;0.57;0.57;;;;;;;;;;5069246;28;20247;-81
2024/03/08 09:18:26;;;;;;;0.00;0.00;;;;;;;;;;5082544;28;20231;-81
2024/03/08 09:20:53;;;;;;;0.00;0.00;;;;;;;;;;5066417;28;20463;-81
2024/03/08 09:23:20;;;;;;;0.17;0.17;;;;;;;;;;5084563;28;20400;-81
2024/03/08 09:25:47;;;;;;;0.20;0.20;;;;;;;;;;5064509;28;20492;-81
2024/03/08 09:28:13;;;;;;;0.00;0.00;;;;;;;;;;5086727;28;20259;-80
2024/03/08 09:30:41;;;;;;;0.50;0.50;;;;;;;;;;5062510;28;20433;-81
2024/03/08 09:33:09;;;;;;;0.35;0.35;;;;;;;;;;5087986;28;20195;-81
2024/03/08 09:35:35;;;;;;;0.40;0.40;;;;;;;;;;5061091;28;20268;-81
2024/03/08 09:38:03;;;;;;;0.00;0.00;;;;;;;;;;5089092;28;20185;-81
2024/03/08 09:40:29;;;;;;;1.55;1.48;;;;;;;;;;5059544;28;20255;-81
2024/03/08 09:42:57;;;;;;;0.00;0.00;;;;;;;;;;5090589;28;20567;-81
2024/03/08 09:45:24;;;;;;;0.00;0.00;;;;;;;;;;5057824;28;20242;-81
2024/03/08 09:47:53;;;;;;;0.00;0.00;;;;;;;;;;5092177;28;20396;-81
2024/03/08 09:50:19;;;;;;;0.15;0.15;;;;;;;;;;5056914;28;20213;-81
2024/03/08 09:52:47;;;;;;;0.00;0.00;;;;;;;;;;5093597;28;20233;-81
2024/03/08 09:55:16;;;;;;;0.00;0.00;;;;;;;;;;5055050;28;20201;-81
2024/03/08 09:58:15;;;;;;;0.00;0.00;;;;;;;;;;5094015;28;20372;-81
2024/03/08 10:00:30;;;;;;;0.10;0.10;;;;;;;;;;5059303;28;20257;-82
2024/03/08 10:03:01;;;;;;;0.10;0.10;;;;;;;;;;5090442;28;20581;-80
2024/03/08 10:05:27;;;;;;;0.20;0.20;;;;;;;;;;5058530;28;20261;-81
2024/03/08 10:07:54;;;;;;;0.00;0.00;;;;;;;;;;5090951;28;20208;-80
2024/03/08 10:10:21;;;;;;;0.00;0.00;;;;;;;;;;5056310;28;20225;-81
2024/03/08 10:12:49;;;;;;;0.20;0.20;;;;;;;;;;5093102;28;20207;-81
2024/03/08 10:15:17;;;;;;;0.20;0.20;;;;;;;;;;5054983;28;20205;-81
2024/03/08 10:17:44;;;;;;;0.08;0.08;;;;;;;;;;5093810;28;20211;-80
2024/03/08 10:20:15;;;;;;;0.00;0.00;;;;;;;;;;5055243;28;20426;-80
2024/03/08 10:22:43;;;;;;;2.13;2.10;;;;;;;;;;5094146;28;20307;-80
2024/03/08 10:25:10;;;;;;;0.10;0.10;;;;;;;;;;5053908;28;20205;-79
2024/03/08 10:27:37;;;;;;;2.40;2.30;;;;;;;;;;5095278;28;20275;-81
2024/03/08 10:30:05;;;;;;;0.10;0.10;;;;;;;;;;5062673;28;20278;-81
2024/03/08 10:32:31;;;;;;;0.45;0.43;;;;;;;;;;5085485;28;20568;-80
2024/03/08 10:34:58;;;;;;;0.03;0.03;;;;;;;;;;5063275;28;20275;-81
2024/03/08 10:37:28;;;;;;;0.10;0.10;;;;;;;;;;5085756;28;20241;-81
2024/03/08 10:40:01;;;;;;;0.85;0.55;;;;;;;;;;5063721;28;20207;-81
2024/03/08 10:42:29;;;;;;;0.10;0.10;;;;;;;;;;5085573;28;20244;-81
2024/03/08 10:45:02;;;;;;;0.30;0.30;;;;;;;;;;5063315;28;20232;-80
2024/03/08 10:47:31;;;;;;;0.10;0.10;;;;;;;;;;5085507;28;20268;-81
2024/03/08 10:50:03;;;;;;;0.08;0.08;;;;;;;;;;5063369;28;20238;-81
2024/03/08 10:52:32;;;;;;;0.10;0.10;;;;;;;;;;5085422;28;20239;-81
2024/03/08 10:54:59;;;;;;;0.03;0.03;;;;;;;;;;5063075;28;20211;-81
2024/03/08 10:57:27;;;;;;;0.10;0.10;;;;;;;;;;5085563;28;20239;-81
2024/03/08 10:59:53;;;;;;;0.03;0.03;;;;;;;;;;5063011;28;20211;-80
2024/03/08 11:02:20;;;;;;;0.10;0.10;;;;;;;;;;5085239;28;20398;-80
2024/03/08 11:04:47;;;;;;;0.10;0.10;;;;;;;;;;5063336;28;20205;-82
2024/03/08 11:07:17;;;;;;;8.68;8.20;;;;;;;;;;5085459;28;20241;-81
2024/03/08 11:09:45;;;;;;;0.40;0.40;;;;;;;;;;5062879;28;20220;-81
2024/03/08 11:12:30;;;;;;;1.00;0.45;;;;;;;;;;5085364;28;20244;-81
2024/03/08 11:14:56;;;;;;;0.10;0.10;;;;;;;;;;5063127;28;20195;-82
2024/03/08 11:17:27;;;;;;;0.30;0.30;;;;;;;;;;5085395;28;20444;-81
2024/03/08 11:19:56;;;;;;;0.10;0.10;;;;;;;;;;5062888;28;20260;-81
2024/03/08 11:22:26;;;;;;;0.00;0.00;;;;;;;;;;5084969;28;20234;-82
2024/03/08 11:24:54;;;;;;;0.00;0.00;;;;;;;;;;5063176;28;20196;-80
2024/03/08 11:27:21;;;;;;;0.00;0.00;;;;;;;;;;5085184;28;20250;-78
2024/03/08 11:30:00;;;;;;;0.35;0.35;;;;;;;;;;5062619;28;20225;-83
2024/03/08 11:32:28;;;;;;;0.00;0.00;;;;;;;;;;5085258;28;20308;-78
2024/03/08 11:34:54;;;;;;;0.73;0.73;;;;;;;;;;5063027;28;20236;-78
2024/03/08 11:37:23;;;;;;;0.10;0.10;;;;;;;;;;5084987;28;20261;-79
2024/03/08 11:39:50;;;;;;;0.98;0.95;;;;;;;;;;5063176;28;20212;-78
2024/03/08 11:42:19;;;;;;;0.00;0.00;;;;;;;;;;5087779;28;20237;-78
2024/03/08 11:44:45;;;;;;;0.00;0.00;;;;;;;;;;5066471;28;20516;-77
2024/03/08 11:47:12;;;;;;;0.00;0.00;;;;;;;;;;5088704;28;20261;-80
2024/03/08 11:49:39;;;;;;;0.30;0.30;;;;;;;;;;5066692;28;20205;-84
2024/03/08 11:52:06;;;;;;;0.00;0.00;;;;;;;;;;5087031;28;20290;-80
2024/03/08 11:54:34;;;;;;;2.17;1.27;;;;;;;;;;5067763;28;20229;-78
2024/03/08 11:57:09;;;;;;;0.28;0.28;;;;;;;;;;5085963;28;20475;-78
2024/03/08 12:10:03;;;;;;;;;;;;;;;;;;;;;
2024/03/08 12:12:41;;;;;;;0.10;0.10;;;;;;;;;;4889870;29;20237;-78
2024/03/08 12:15:11;;;;;;;0.75;0.75;;;;;;;;;;4985333;28;20195;-78
2024/03/08 12:17:39;;;;;;;1.30;0.77;;;;;;;;;;4959351;28;20466;-78
2024/03/08 12:20:14;;;;;;;0.00;0.00;;;;;;;;;;4985502;28;20202;-77
2024/03/08 12:22:44;;;;;;;0.00;0.00;;;;;;;;;;5007601;28;20282;-77
2024/03/08 12:25:12;;;;;;;0.00;0.00;;;;;;;;;;5056245;28;20212;-76
2024/03/08 12:27:40;;;;;;;0.35;0.35;;;;;;;;;;5096948;28;20208;-77
2024/03/08 12:30:20;;;;;;;0.10;0.10;;;;;;;;;;5065795;28;20204;-71
2024/03/08 12:32:52;;;;;;;0.57;0.57;;;;;;;;;;5065762;28;20219;-71
2024/03/08 12:35:18;;;;;;;0.00;0.00;;;;;;;;;;5058230;28;20230;-71
2024/03/08 12:37:44;;;;;;;0.10;0.10;;;;;;;;;;5095272;28;20224;-71
2024/03/08 12:40:16;;;;;;;0.00;0.00;;;;;;;;;;5055823;28;20223;-71
2024/03/08 12:42:44;;;;;;;0.35;0.35;;;;;;;;;;5095526;28;20207;-72
2024/03/08 12:45:10;;;;;;;0.00;0.00;;;;;;;;;;5055527;28;20196;-70
2024/03/08 12:47:37;;;;;;;0.32;0.32;;;;;;;;;;5097101;28;20231;-71
2024/03/08 12:50:04;;;;;;;0.00;0.00;;;;;;;;;;5065179;28;20204;-72
2024/03/08 12:52:30;;;;;;;0.00;0.00;;;;;;;;;;5086751;28;20430;-73
2024/03/08 12:54:57;;;;;;;0.00;0.00;;;;;;;;;;5065238;28;20237;-72
2024/03/08 12:57:26;;;;;;;0.10;0.10;;;;;;;;;;5087479;28;20242;-72
2024/03/08 12:59:54;;;;;;;0.00;0.00;;;;;;;;;;5065079;28;20204;-72
2024/03/08 13:02:21;;;;;;;1.00;1.00;;;;;;;;;;5087525;28;20246;-72
2024/03/08 13:04:55;;;;;;;0.00;0.00;;;;;;;;;;5064958;28;20211;-73
2024/03/08 13:07:23;;;;;;;0.10;0.10;;;;;;;;;;5087303;28;20242;-73
2024/03/08 13:09:49;;;;;;;0.10;0.10;;;;;;;;;;5064863;28;20412;-73
2024/03/08 13:12:16;;;;;;;0.00;0.00;;;;;;;;;;5087126;28;20301;-74
2024/03/08 13:14:42;;;;;;;0.00;0.00;;;;;;;;;;5064892;28;20226;-72
2024/03/08 13:20:16;;;;;;;0.10;0.10;;;;;;;;;;5032982;28;20196;-73
2024/03/08 13:22:42;;;;;;;0.00;0.00;;;;;;;;;;5058475;28;20207;-72
2024/03/08 13:25:12;;;;;;;0.00;0.00;;;;;;;;;;5063154;28;20204;-73
2024/03/08 13:27:40;;;;;;;0.10;0.10;;;;;;;;;;5096002;28;20295;-73
2024/03/08 13:30:11;;;;;;;0.20;0.20;;;;;;;;;;5064404;28;20226;-72
2024/03/08 13:32:39;;;;;;;0.00;0.00;;;;;;;;;;5053681;28;20207;-74
2024/03/08 13:35:12;;;;;;;0.20;0.20;;;;;;;;;;5064604;28;20204;-75
2024/03/08 13:37:40;;;;;;;0.00;0.00;;;;;;;;;;5053815;28;20218;-75
2024/03/08 13:40:10;;;;;;;0.00;0.00;;;;;;;;;;5064908;28;20219;-74
2024/03/08 13:42:38;;;;;;;0.00;0.00;;;;;;;;;;5053341;28;20257;-74
2024/03/08 13:45:05;;;;;;;0.00;0.00;;;;;;;;;;5064513;28;20204;-75
2024/03/08 13:47:32;;;;;;;0.00;0.00;;;;;;;;;;5086917;28;20299;-74
2024/03/08 13:50:00;;;;;;;0.00;0.00;;;;;;;;;;5064468;28;20374;-74
2024/03/08 13:52:29;;;;;;;0.08;0.08;;;;;;;;;;5086951;28;20243;-74
2024/03/08 13:54:57;;;;;;;0.22;0.22;;;;;;;;;;5064535;28;20200;-74
2024/03/08 13:57:23;;;;;;;0.00;0.00;;;;;;;;;;5086553;28;20238;-75
2024/03/08 13:59:51;;;;;;;0.00;0.00;;;;;;;;;;5064391;28;20403;-75
2024/03/08 14:02:17;;;;;;;0.88;0.88;;;;;;;;;;5086501;28;20238;-76
2024/03/08 14:04:44;;;;;;;2.17;2.08;;;;;;;;;;5063094;28;20504;-74
2024/03/08 14:07:11;;;;;;;0.08;0.08;;;;;;;;;;5086159;28;20292;-74
2024/03/08 14:09:42;;;;;;;0.00;0.00;;;;;;;;;;5063885;28;20238;-75
2024/03/08 14:12:10;;;;;;;0.00;0.00;;;;;;;;;;5086259;28;20248;-75
2024/03/08 14:14:36;;;;;;;0.00;0.00;;;;;;;;;;5063961;28;20538;-75
2024/03/08 14:17:03;;;;;;;0.10;0.10;;;;;;;;;;5084698;28;20240;-75
2024/03/08 14:19:30;;;;;;;0.30;0.30;;;;;;;;;;5065551;28;20210;-75
2024/03/08 14:21:59;;;;;;;0.00;0.00;;;;;;;;;;5082904;28;20452;-74
2024/03/08 14:24:25;;;;;;;0.10;0.10;;;;;;;;;;5065873;28;20386;-75
2024/03/08 14:26:52;;;;;;;0.05;0.05;;;;;;;;;;5081406;28;20624;-74
2024/03/08 14:29:20;;;;;;;0.10;0.10;;;;;;;;;;5067655;28;20213;-75
2024/03/08 14:31:46;;;;;;;3.63;2.40;;;;;;;;;;5079521;28;20285;-75
2024/03/08 14:34:14;;;;;;;0.10;0.10;;;;;;;;;;5069451;28;20232;-75
2024/03/08 14:36:40;;;;;;;0.08;0.08;;;;;;;;;;5075784;28;20241;-74
2024/03/08 14:39:07;;;;;;;0.10;0.10;;;;;;;;;;5071293;28;20208;-74
2024/03/08 14:42:06;;;;;;;0.10;0.10;;;;;;;;;;5067080;28;20242;-74
2024/03/08 14:48:03;;;;;;;0.00;0.00;;;;;;;;;;5033879;28;20251;-74
2024/03/08 14:57:36;;;;;;;;;;;;;;;;;;;;;
2024/03/08 15:03:55;;;;;;;0.10;0.10;;;;;;;;;;5044948;28;20232;-71
2024/03/08 15:09:43;;;;;;;0.23;0.23;;;;;;;;;;5062761;28;20195;-70
2024/03/08 15:15:14;;;;;;;0.10;0.10;;;;;;;;;;5039206;28;20396;-72
2024/03/08 15:17:40;;;;;;;1.27;1.27;;;;;;;;;;5064453;28;20413;-70
2024/03/08 15:20:14;;;;;;;1.03;1.03;;;;;;;;;;5064794;28;20231;-69
2024/03/08 15:22:41;;;;;;;0.10;0.10;;;;;;;;;;5038321;28;20205;-69
2024/03/08 15:25:11;;;;;;;0.30;0.30;;;;;;;;;;5064750;28;20210;-71
2024/03/08 15:27:39;;;;;;;0.10;0.10;;;;;;;;;;5037885;28;20204;-70